Time;durP1;ratioP1;P1;durP2;ratioP2;P2;SDS_P1;SDS_P2;PMS_P1;PMS_P2;Temp;Humidity;BMP_temperature;BMP_pressure;BME280_temperature;BME280_humidity;BME280_pressure;Samples;Min_cycle;Max_cycle;Signal;HPM_P1;HPM_P2
2023/07/25 00:01:03;;;;;;;10.00;4.50;;;25.70;92.70;;;;;;6164971;23;20036;-82
2023/07/25 00:03:31;;;;;;;7.97;3.90;;;25.70;92.80;;;;;;6166133;23;20048;-82
2023/07/25 00:06:01;;;;;;;8.95;4.32;;;25.70;92.80;;;;;;6165207;23;20483;-83
2023/07/25 00:08:30;;;;;;;10.25;4.57;;;25.70;92.80;;;;;;6217347;23;20506;-81
2023/07/25 00:10:57;;;;;;;12.30;4.32;;;25.60;92.90;;;;;;6164574;23;20020;-82
2023/07/25 00:13:24;;;;;;;7.15;4.00;;;25.70;92.90;;;;;;6163826;23;20026;-82
2023/07/25 00:15:51;;;;;;;9.20;4.18;;;25.70;93.00;;;;;;6188822;23;20074;-81
2023/07/25 00:18:18;;;;;;;12.15;4.32;;;25.60;92.70;;;;;;6189834;23;20025;-81
2023/07/25 00:20:46;;;;;;;10.70;4.13;;;25.70;93.50;;;;;;6188547;23;20104;-81
2023/07/25 00:23:13;;;;;;;12.18;3.97;;;25.70;94.10;;;;;;6189459;23;20047;-82
2023/07/25 00:25:40;;;;;;;9.10;3.97;;;25.60;94.50;;;;;;6189279;23;20028;-82
2023/07/25 00:28:07;;;;;;;10.70;4.80;;;25.60;95.00;;;;;;6190973;23;20020;-83
2023/07/25 00:30:34;;;;;;;11.75;3.80;;;25.50;95.40;;;;;;6188759;23;20012;-83
2023/07/25 00:33:01;;;;;;;9.50;3.90;;;25.50;95.20;;;;;;6190168;23;20044;-82
2023/07/25 00:35:29;;;;;;;11.50;4.05;;;25.50;94.90;;;;;;6165112;23;20120;-82
2023/07/25 00:37:56;;;;;;;11.38;4.50;;;25.50;94.60;;;;;;6189663;23;20024;-82
2023/07/25 00:40:23;;;;;;;10.88;4.00;;;25.50;94.90;;;;;;6165942;23;20024;-83
2023/07/25 00:42:57;;;;;;;9.23;4.03;;;25.50;94.80;;;;;;6189892;23;20028;-83
2023/07/25 00:45:25;;;;;;;7.35;3.88;;;25.50;95.10;;;;;;6190266;23;20756;-83
2023/07/25 00:47:52;;;;;;;12.57;4.47;;;25.50;95.00;;;;;;6165303;23;20024;-83
2023/07/25 00:50:20;;;;;;;10.32;4.55;;;25.40;94.60;;;;;;6189842;23;20016;-82
2023/07/25 00:52:47;;;;;;;9.27;4.43;;;25.30;95.00;;;;;;6164884;23;20017;-82
2023/07/25 00:55:14;;;;;;;9.73;4.32;;;25.30;95.10;;;;;;6163565;23;20105;-82
2023/07/25 00:57:42;;;;;;;9.95;4.15;;;25.30;95.80;;;;;;6189729;23;20063;-83
2023/07/25 01:00:09;;;;;;;9.57;4.38;;;25.30;96.60;;;;;;6189842;23;20764;-82
2023/07/25 01:02:36;;;;;;;9.63;4.57;;;25.30;96.60;;;;;;6163688;23;20025;-83
2023/07/25 01:05:04;;;;;;;9.98;4.43;;;25.30;97.00;;;;;;6163707;23;20036;-82
2023/07/25 01:07:32;;;;;;;14.05;4.78;;;25.30;97.80;;;;;;6188270;23;20037;-82
2023/07/25 01:10:00;;;;;;;11.02;4.38;;;25.10;99.50;;;;;;6188151;23;20047;-83
2023/07/25 01:12:29;;;;;;;11.35;4.53;;;25.00;99.90;;;;;;6138701;23;20032;-84
2023/07/25 01:14:56;;;;;;;12.43;3.65;;;24.90;99.90;;;;;;6188418;23;20024;-82
2023/07/25 01:17:24;;;;;;;8.52;2.85;;;24.80;99.90;;;;;;6188575;23;20395;-82
2023/07/25 01:19:53;;;;;;;6.78;2.47;;;24.50;99.90;;;;;;6187176;23;20016;-81
2023/07/25 01:22:25;;;;;;;7.82;2.33;;;24.40;99.90;;;;;;6186101;23;20034;-81
2023/07/25 01:24:54;;;;;;;6.32;2.20;;;24.30;99.90;;;;;;6186251;23;20322;-79
2023/07/25 01:27:22;;;;;;;9.70;2.67;;;24.20;99.90;;;;;;6162753;23;20020;-79
2023/07/25 01:29:49;;;;;;;7.20;2.10;;;24.20;99.90;;;;;;6186111;23;20020;-78
2023/07/25 01:32:16;;;;;;;6.97;2.10;;;24.10;99.90;;;;;;6186891;23;20134;-77
2023/07/25 01:34:44;;;;;;;7.65;2.72;;;24.00;99.90;;;;;;6163249;23;20352;-77
2023/07/25 01:37:12;;;;;;;4.97;2.03;;;24.00;99.90;;;;;;6187161;23;20028;-77
2023/07/25 01:39:42;;;;;;;7.70;1.40;;;23.80;99.90;;;;;;6186324;23;20457;-79
2023/07/25 01:42:09;;;;;;;7.82;1.10;;;23.90;99.90;;;;;;6186723;23;20043;-79
2023/07/25 01:44:37;;;;;;;5.25;1.20;;;23.80;99.90;;;;;;6187023;23;20024;-78
2023/07/25 01:47:04;;;;;;;4.75;1.15;;;23.80;99.90;;;;;;6187825;23;20389;-79
2023/07/25 01:49:31;;;;;;;3.10;0.82;;;23.80;99.90;;;;;;6187212;23;20024;-79
2023/07/25 01:51:58;;;;;;;4.72;0.95;;;23.80;99.90;;;;;;6162147;23;20063;-79
2023/07/25 01:54:26;;;;;;;4.70;0.95;;;23.80;99.90;;;;;;6187049;23;20111;-78
2023/07/25 01:56:53;;;;;;;3.63;0.85;;;23.80;99.90;;;;;;6186708;23;20075;-79
2023/07/25 01:59:20;;;;;;;3.15;1.05;;;23.70;99.90;;;;;;6185916;23;20028;-78
2023/07/25 02:01:47;;;;;;;6.75;1.05;;;23.70;99.90;;;;;;6186162;23;20044;-77
2023/07/25 02:04:14;;;;;;;5.82;0.93;;;23.60;99.90;;;;;;6161094;23;20091;-77
2023/07/25 02:06:41;;;;;;;6.18;1.45;;;23.50;99.90;;;;;;6161242;23;20052;-78
2023/07/25 02:09:09;;;;;;;4.80;0.90;;;23.40;99.90;;;;;;6162027;23;20029;-78
2023/07/25 02:11:36;;;;;;;5.97;1.60;;;23.40;99.90;;;;;;6162248;23;20048;-78
2023/07/25 02:14:03;;;;;;;5.15;1.35;;;23.50;99.90;;;;;;6186193;23;20051;-78
2023/07/25 02:16:33;;;;;;;4.18;1.33;;;23.50;99.90;;;;;;6186828;23;20017;-79
2023/07/25 02:19:00;;;;;;;5.32;1.20;;;23.40;99.90;;;;;;6162106;23;20028;-78
2023/07/25 02:21:28;;;;;;;5.68;1.20;;;23.50;99.90;;;;;;6186373;23;20087;-78
2023/07/25 02:23:56;;;;;;;4.80;1.20;;;23.50;99.90;;;;;;6162193;23;20055;-78
2023/07/25 02:26:23;;;;;;;6.18;1.75;;;23.50;99.90;;;;;;6186851;23;20036;-78
2023/07/25 02:28:51;;;;;;;2.42;0.77;;;23.50;99.90;;;;;;6162599;23;20445;-77
2023/07/25 02:31:18;;;;;;;3.95;0.93;;;23.30;99.90;;;;;;6186022;23;20449;-75
2023/07/25 02:33:45;;;;;;;6.32;1.65;;;23.30;99.90;;;;;;6187911;23;20088;-76
2023/07/25 02:36:12;;;;;;;4.40;0.70;;;23.30;99.90;;;;;;6187648;23;20040;-77
2023/07/25 02:38:39;;;;;;;4.90;1.05;;;23.10;99.90;;;;;;6214134;23;20063;-77
2023/07/25 02:41:08;;;;;;;4.72;1.00;;;23.20;99.90;;;;;;6189333;23;20024;-79
2023/07/25 02:43:35;;;;;;;5.35;0.95;;;23.20;99.90;;;;;;6163593;23;20052;-78
2023/07/25 02:46:02;;;;;;;4.15;1.10;;;23.20;99.90;;;;;;6187658;23;20183;-78
2023/07/25 02:48:29;;;;;;;3.25;0.80;;;23.20;99.90;;;;;;6164447;23;20040;-78
2023/07/25 02:50:56;;;;;;;4.55;0.90;;;23.20;99.90;;;;;;6215680;23;20048;-78
2023/07/25 02:53:24;;;;;;;6.75;0.93;;;23.20;99.90;;;;;;6188437;23;20013;-78
2023/07/25 02:55:54;;;;;;;3.83;1.35;;;23.20;99.90;;;;;;6186549;23;20047;-78
2023/07/25 02:58:21;;;;;;;5.20;0.82;;;23.20;99.90;;;;;;6186954;23;20024;-78
2023/07/25 03:00:49;;;;;;;5.80;1.10;;;23.10;99.90;;;;;;6186352;23;20079;-78
2023/07/25 03:03:16;;;;;;;6.78;1.00;;;23.20;99.90;;;;;;6163326;23;20028;-78
2023/07/25 03:05:43;;;;;;;4.05;1.80;;;23.10;99.90;;;;;;6187137;23;20024;-78
2023/07/25 03:08:10;;;;;;;10.20;1.35;;;23.00;99.90;;;;;;6188076;23;20098;-78
2023/07/25 03:10:38;;;;;;;6.40;1.20;;;23.10;99.90;;;;;;6187703;23;20079;-78
2023/07/25 03:13:05;;;;;;;8.20;1.33;;;23.00;99.90;;;;;;6187429;23;20017;-78
2023/07/25 03:15:32;;;;;;;3.83;1.17;;;22.90;99.90;;;;;;6187719;23;20052;-78
2023/07/25 03:17:59;;;;;;;9.65;1.27;;;22.90;99.90;;;;;;6187745;23;20044;-79
2023/07/25 03:20:26;;;;;;;7.50;1.15;;;22.90;99.90;;;;;;6163464;23;20024;-79
2023/07/25 03:22:53;;;;;;;7.60;2.60;;;22.80;99.90;;;;;;6186957;23;20025;-78
2023/07/25 03:25:21;;;;;;;6.90;1.95;;;22.80;99.90;;;;;;6186801;23;20075;-79
2023/07/25 03:27:48;;;;;;;6.15;1.38;;;22.80;99.90;;;;;;6187402;23;20043;-79
2023/07/25 03:30:15;;;;;;;6.95;1.45;;;22.80;99.90;;;;;;6162212;23;20025;-79
2023/07/25 03:32:42;;;;;;;4.88;1.17;;;22.80;99.90;;;;;;6187640;23;20208;-79
2023/07/25 03:35:09;;;;;;;3.92;1.40;;;22.80;99.90;;;;;;6163261;23;20051;-79
2023/07/25 03:37:37;;;;;;;3.95;0.82;;;22.90;99.90;;;;;;6186740;23;20025;-80
2023/07/25 03:40:05;;;;;;;4.35;1.40;;;22.90;99.90;;;;;;6187381;23;20016;-80
2023/07/25 03:42:32;;;;;;;4.25;1.20;;;22.80;99.90;;;;;;6187588;23;20023;-80
2023/07/25 03:44:59;;;;;;;6.22;1.42;;;22.60;99.90;;;;;;6163180;23;20027;-80
2023/07/25 03:47:26;;;;;;;5.47;1.90;;;22.50;99.90;;;;;;6186412;23;20017;-79
2023/07/25 03:49:53;;;;;;;4.00;1.33;;;22.60;99.90;;;;;;6187567;23;20025;-79
2023/07/25 03:52:20;;;;;;;5.63;1.10;;;22.60;99.90;;;;;;6187439;23;20048;-79
2023/07/25 03:54:47;;;;;;;5.38;1.45;;;22.70;99.90;;;;;;6162011;23;20640;-79
2023/07/25 03:57:14;;;;;;;3.15;1.17;;;22.70;99.90;;;;;;6186965;23;20016;-79
2023/07/25 03:59:41;;;;;;;3.38;1.00;;;22.70;99.90;;;;;;6187118;23;20510;-79
2023/07/25 04:02:09;;;;;;;4.50;1.33;;;22.70;99.90;;;;;;6186475;23;20027;-79
2023/07/25 04:04:36;;;;;;;6.88;1.40;;;22.70;99.90;;;;;;6186628;23;20740;-78
2023/07/25 04:07:04;;;;;;;4.05;1.15;;;22.70;99.90;;;;;;6187708;23;20044;-78
2023/07/25 04:09:31;;;;;;;6.72;1.45;;;22.70;99.90;;;;;;6186474;23;20028;-79
2023/07/25 04:11:58;;;;;;;4.88;1.55;;;22.60;99.90;;;;;;6187305;23;20397;-80
2023/07/25 04:14:25;;;;;;;7.85;2.00;;;22.60;99.90;;;;;;6187474;23;20016;-80
2023/07/25 04:16:52;;;;;;;7.53;1.75;;;22.50;99.90;;;;;;6186391;23;20386;-80
2023/07/25 04:19:21;;;;;;;3.83;1.25;;;22.60;99.90;;;;;;6187309;23;20756;-80
2023/07/25 04:21:48;;;;;;;5.05;1.85;;;22.60;99.90;;;;;;6162575;23;20079;-80
2023/07/25 04:24:15;;;;;;;6.57;1.73;;;22.60;99.90;;;;;;6186994;23;20458;-80
2023/07/25 04:26:43;;;;;;;5.93;1.70;;;22.70;99.90;;;;;;6187153;23;20032;-79
2023/07/25 04:29:10;;;;;;;5.95;1.80;;;22.70;99.90;;;;;;6188259;23;20395;-79
2023/07/25 04:31:37;;;;;;;6.38;1.75;;;22.70;99.90;;;;;;6186870;23;20475;-79
2023/07/25 04:34:04;;;;;;;4.57;1.30;;;22.80;99.90;;;;;;6188172;23;20040;-79
2023/07/25 04:36:31;;;;;;;7.22;1.90;;;22.80;99.90;;;;;;6188085;23;20463;-79
2023/07/25 04:38:59;;;;;;;6.28;1.58;;;22.80;99.90;;;;;;6187226;23;20021;-78
2023/07/25 04:41:26;;;;;;;5.15;1.55;;;22.80;99.90;;;;;;6187325;23;20021;-78
2023/07/25 04:43:53;;;;;;;5.30;1.10;;;22.70;99.90;;;;;;6188204;23;20028;-79
2023/07/25 04:46:20;;;;;;;5.90;1.60;;;22.70;99.90;;;;;;6187258;23;20437;-79
2023/07/25 04:48:47;;;;;;;5.30;1.30;;;22.70;99.90;;;;;;6187257;23;20021;-79
2023/07/25 04:51:14;;;;;;;7.45;2.47;;;22.70;99.90;;;;;;6162458;23;20719;-78
2023/07/25 04:53:42;;;;;;;5.38;1.90;;;22.70;99.90;;;;;;6163056;23;20047;-78
2023/07/25 04:56:09;;;;;;;6.38;1.77;;;22.60;99.90;;;;;;6162636;23;20020;-79
2023/07/25 04:58:43;;;;;;;5.40;1.73;;;22.60;99.90;;;;;;6187804;23;20024;-79
2023/07/25 05:01:12;;;;;;;3.58;1.60;;;22.70;99.90;;;;;;6187125;23;20109;-78
2023/07/25 05:03:39;;;;;;;6.43;1.58;;;22.80;99.90;;;;;;6187496;23;20099;-78
2023/07/25 05:06:06;;;;;;;6.55;1.50;;;22.80;99.90;;;;;;6186275;23;20348;-79
2023/07/25 05:08:33;;;;;;;9.18;1.35;;;22.90;99.90;;;;;;6186533;23;20659;-79
2023/07/25 05:11:01;;;;;;;6.35;1.70;;;23.00;99.90;;;;;;6186399;23;20025;-79
2023/07/25 05:13:29;;;;;;;6.22;2.05;;;23.00;99.90;;;;;;6187076;23;20016;-78
2023/07/25 05:15:56;;;;;;;5.32;0.98;;;23.10;99.90;;;;;;6161320;23;20017;-78
2023/07/25 05:18:23;;;;;;;5.20;1.38;;;23.20;99.90;;;;;;6161570;23;20135;-77
2023/07/25 05:20:50;;;;;;;5.70;1.70;;;23.40;99.90;;;;;;6161729;23;20399;-78
2023/07/25 05:23:17;;;;;;;4.90;1.30;;;23.30;99.90;;;;;;6213200;23;20502;-78
2023/07/25 05:25:47;;;;;;;7.07;1.73;;;23.40;99.90;;;;;;6213645;23;20670;-78
2023/07/25 05:28:14;;;;;;;4.15;1.02;;;23.50;99.90;;;;;;6186785;23;20079;-78
2023/07/25 05:30:42;;;;;;;7.95;1.67;;;23.70;99.90;;;;;;6186002;23;20111;-78
2023/07/25 05:33:09;;;;;;;9.32;1.50;;;23.70;99.90;;;;;;6187180;23;20044;-78
2023/07/25 05:35:36;;;;;;;2.75;0.77;;;23.70;99.90;;;;;;6187243;23;20052;-78
2023/07/25 05:38:07;;;;;;;5.82;1.25;;;23.80;99.90;;;;;;6186663;23;20550;-78
2023/07/25 05:40:35;;;;;;;4.25;1.08;;;23.90;99.90;;;;;;6161747;23;20020;-79
2023/07/25 05:43:03;;;;;;;5.57;1.10;;;23.90;99.90;;;;;;6186175;23;20024;-78
2023/07/25 05:45:30;;;;;;;5.22;1.20;;;23.90;99.90;;;;;;6186094;23;20012;-78
2023/07/25 05:47:57;;;;;;;5.00;1.92;;;24.10;99.90;;;;;;6160730;23;20024;-78
2023/07/25 05:50:24;;;;;;;8.05;1.48;;;23.90;99.90;;;;;;6185992;23;20040;-79
2023/07/25 05:52:52;;;;;;;9.45;1.60;;;24.10;99.90;;;;;;6185117;23;20091;-80
2023/07/25 05:55:19;;;;;;;4.88;1.63;;;24.40;99.90;;;;;;6161971;23;20052;-81
2023/07/25 05:57:46;;;;;;;2.83;1.58;;;24.40;99.90;;;;;;6186365;23;20016;-80
2023/07/25 06:00:14;;;;;;;4.18;1.52;;;24.50;99.90;;;;;;6184679;23;20052;-80
2023/07/25 06:02:41;;;;;;;6.63;1.65;;;24.70;99.90;;;;;;6181670;23;20052;-80
2023/07/25 06:05:08;;;;;;;4.45;1.27;;;24.80;99.90;;;;;;6185004;23;20032;-81
2023/07/25 06:07:35;;;;;;;6.05;1.85;;;24.90;99.90;;;;;;6185270;23;20429;-81
2023/07/25 06:10:02;;;;;;;3.75;2.10;;;24.90;99.90;;;;;;6185982;23;20056;-79
2023/07/25 06:12:29;;;;;;;7.43;1.80;;;25.20;99.90;;;;;;6188109;23;20016;-82
2023/07/25 06:14:57;;;;;;;4.00;0.98;;;25.20;99.90;;;;;;6192843;23;20100;-81
2023/07/25 06:17:24;;;;;;;9.27;1.70;;;25.40;99.90;;;;;;6164644;23;20379;-82
2023/07/25 06:19:51;;;;;;;6.60;1.58;;;25.30;99.90;;;;;;6161918;23;20024;-79
2023/07/25 06:22:18;;;;;;;5.68;1.80;;;25.50;99.90;;;;;;6188508;23;20028;-80
2023/07/25 06:24:46;;;;;;;5.22;2.40;;;25.60;99.90;;;;;;6187659;23;20032;-79
2023/07/25 06:27:13;;;;;;;5.82;1.77;;;25.70;99.30;;;;;;6160459;23;20021;-79
2023/07/25 06:29:41;;;;;;;4.22;1.38;;;25.80;98.60;;;;;;6182717;23;20111;-79
2023/07/25 06:32:08;;;;;;;3.63;1.10;;;25.80;98.20;;;;;;6187373;23;20025;-81
2023/07/25 06:34:35;;;;;;;6.03;1.77;;;26.00;98.40;;;;;;6161537;23;20024;-78
2023/07/25 06:37:02;;;;;;;5.63;1.33;;;26.10;98.60;;;;;;6163844;23;20464;-81
2023/07/25 06:39:29;;;;;;;3.65;0.95;;;26.20;97.70;;;;;;6188987;23;20099;-81
2023/07/25 06:41:56;;;;;;;6.05;1.40;;;26.20;97.00;;;;;;6185990;23;20082;-79
2023/07/25 06:44:24;;;;;;;7.07;1.80;;;26.40;96.70;;;;;;6183363;23;20091;-78
2023/07/25 06:46:51;;;;;;;6.18;1.25;;;26.30;96.30;;;;;;6163526;23;20055;-81
2023/07/25 06:49:18;;;;;;;2.92;1.23;;;26.40;96.20;;;;;;6184174;23;20352;-82
2023/07/25 06:51:45;;;;;;;6.75;1.60;;;26.50;96.80;;;;;;6163103;23;20048;-80
2023/07/25 06:54:15;;;;;;;3.30;1.38;;;26.60;95.60;;;;;;6187304;23;20028;-82
2023/07/25 06:56:42;;;;;;;6.63;1.17;;;26.70;95.90;;;;;;6188401;23;20040;-82
2023/07/25 06:59:10;;;;;;;6.00;1.20;;;26.70;95.20;;;;;;6161064;23;20025;-82
2023/07/25 07:01:37;;;;;;;5.18;1.17;;;26.90;94.60;;;;;;6187660;23;20676;-81
2023/07/25 07:04:04;;;;;;;5.05;1.45;;;27.10;93.80;;;;;;6186979;23;20066;-81
2023/07/25 07:06:31;;;;;;;4.90;1.30;;;27.20;93.90;;;;;;6185703;23;20051;-81
2023/07/25 07:08:58;;;;;;;4.82;1.33;;;27.20;93.90;;;;;;6185882;23;20039;-82
2023/07/25 07:11:26;;;;;;;9.63;2.42;;;27.10;93.40;;;;;;6183008;23;20111;-81
2023/07/25 07:13:53;;;;;;;5.72;1.33;;;27.10;92.00;;;;;;6185518;23;20416;-82
2023/07/25 07:16:20;;;;;;;4.55;1.05;;;27.10;92.20;;;;;;6184618;23;20025;-81
2023/07/25 07:18:50;;;;;;;7.60;1.10;;;27.10;92.80;;;;;;6186638;23;20035;-81
2023/07/25 07:21:18;;;;;;;4.55;1.27;;;27.00;92.70;;;;;;6162860;23;20028;-82
2023/07/25 07:23:45;;;;;;;3.72;1.20;;;27.00;92.90;;;;;;6162806;23;20087;-83
2023/07/25 07:26:12;;;;;;;6.75;1.90;;;27.10;93.10;;;;;;6188428;23;20636;-81
2023/07/25 07:28:39;;;;;;;9.35;1.45;;;27.10;93.60;;;;;;6183954;23;20746;-82
2023/07/25 07:31:08;;;;;;;5.63;1.30;;;27.10;93.10;;;;;;6211176;23;20022;-81
2023/07/25 07:33:36;;;;;;;5.28;1.88;;;27.30;93.20;;;;;;6162122;23;20024;-81
2023/07/25 07:36:03;;;;;;;7.03;0.85;;;27.50;91.90;;;;;;6186139;23;20016;-81
2023/07/25 07:38:30;;;;;;;4.20;1.00;;;27.70;91.80;;;;;;6183979;23;20017;-81
2023/07/25 07:40:57;;;;;;;5.97;1.90;;;27.80;91.40;;;;;;6185885;23;20024;-80
2023/07/25 07:43:24;;;;;;;4.07;1.08;;;27.60;91.00;;;;;;6186691;23;20115;-81
2023/07/25 07:45:52;;;;;;;4.82;1.15;;;27.50;91.60;;;;;;6163896;23;20028;-82
2023/07/25 07:48:19;;;;;;;3.55;1.23;;;27.50;91.90;;;;;;6213420;23;20021;-79
2023/07/25 07:50:46;;;;;;;5.53;1.75;;;27.20;91.90;;;;;;6188263;23;20059;-82
2023/07/25 07:53:13;;;;;;;4.70;2.13;;;27.30;92.00;;;;;;6163417;23;20725;-79
2023/07/25 07:55:40;;;;;;;5.18;1.30;;;27.30;91.80;;;;;;6185096;23;20024;-80
2023/07/25 07:58:07;;;;;;;6.32;1.60;;;27.30;92.20;;;;;;6188117;23;20091;-81
2023/07/25 08:00:34;;;;;;;2.95;1.00;;;27.30;92.90;;;;;;6214906;23;20013;-81
2023/07/25 08:03:02;;;;;;;4.07;1.20;;;27.10;93.20;;;;;;6181156;23;20091;-81
2023/07/25 08:05:29;;;;;;;8.02;1.50;;;27.00;93.70;;;;;;6182699;23;20048;-80
2023/07/25 08:07:56;;;;;;;4.68;1.25;;;26.90;94.40;;;;;;6184697;23;20095;-80
2023/07/25 08:10:25;;;;;;;5.70;1.40;;;26.70;94.50;;;;;;6187893;23;20441;-81
2023/07/25 08:12:52;;;;;;;3.58;1.00;;;26.60;94.80;;;;;;6188607;23;20047;-82
2023/07/25 08:15:20;;;;;;;8.00;1.55;;;26.40;95.00;;;;;;6186475;23;20043;-82
2023/07/25 08:17:47;;;;;;;4.68;2.15;;;26.30;95.00;;;;;;6158383;23;20380;-81
2023/07/25 08:20:15;;;;;;;6.03;1.30;;;26.10;96.40;;;;;;6180645;23;20821;-81
2023/07/25 08:22:42;;;;;;;5.40;1.58;;;26.10;96.80;;;;;;6186524;23;20025;-81
2023/07/25 08:25:11;;;;;;;6.68;2.33;;;26.00;96.00;;;;;;6185433;23;20016;-80
2023/07/25 08:27:38;;;;;;;5.43;1.23;;;25.90;95.80;;;;;;6162655;23;20767;-81
2023/07/25 08:30:06;;;;;;;6.05;1.48;;;25.90;95.60;;;;;;6162517;23;20051;-81
2023/07/25 08:32:34;;;;;;;4.32;1.15;;;25.90;96.30;;;;;;6186536;23;20016;-81
2023/07/25 08:35:01;;;;;;;4.90;1.35;;;25.80;96.00;;;;;;6213143;23;20084;-81
2023/07/25 08:37:28;;;;;;;6.43;0.93;;;25.70;95.90;;;;;;6186250;23;20021;-80
2023/07/25 08:39:55;;;;;;;4.47;0.93;;;25.60;96.00;;;;;;6188000;23;20029;-81
2023/07/25 08:42:25;;;;;;;3.40;1.27;;;25.60;96.10;;;;;;6187240;23;20139;-81
2023/07/25 08:44:55;;;;;;;4.90;1.48;;;25.50;96.10;;;;;;6186827;23;20028;-81
2023/07/25 08:47:27;;;;;;;8.45;1.55;;;25.40;96.70;;;;;;6162996;23;20020;-80
2023/07/25 08:49:57;;;;;;;4.38;1.35;;;25.30;96.80;;;;;;6186997;23;20453;-81
2023/07/25 08:52:30;;;;;;;6.00;0.70;;;25.30;96.40;;;;;;6162216;23;20032;-82
2023/07/25 08:54:57;;;;;;;4.18;1.20;;;25.30;96.90;;;;;;6187298;23;20024;-81
2023/07/25 08:57:26;;;;;;;3.50;1.02;;;25.30;97.30;;;;;;6186793;23;20055;-80
2023/07/25 08:59:53;;;;;;;4.30;1.00;;;25.20;97.50;;;;;;6184090;23;20078;-81
2023/07/25 09:02:21;;;;;;;4.95;1.13;;;25.10;98.60;;;;;;6158079;23;20107;-81
2023/07/25 09:04:50;;;;;;;10.02;1.88;;;25.10;99.20;;;;;;6186523;23;20024;-81
2023/07/25 09:07:17;;;;;;;4.25;0.73;;;25.10;99.70;;;;;;6160472;23;20500;-81
2023/07/25 09:09:44;;;;;;;3.97;0.90;;;25.10;99.90;;;;;;6184124;23;20028;-81
2023/07/25 09:12:11;;;;;;;3.58;0.80;;;25.10;99.90;;;;;;6186208;23;20044;-81
2023/07/25 09:14:39;;;;;;;6.15;1.05;;;25.20;99.90;;;;;;6161916;23;20441;-81
2023/07/25 09:17:06;;;;;;;8.27;1.70;;;25.10;99.90;;;;;;6186302;23;20017;-81
2023/07/25 09:19:34;;;;;;;5.60;1.23;;;25.10;99.90;;;;;;6181873;23;20090;-83
2023/07/25 09:22:01;;;;;;;4.65;1.10;;;25.00;99.90;;;;;;6160873;23;20448;-82
2023/07/25 09:24:39;;;;;;;5.13;1.10;;;24.80;99.90;;;;;;6185803;23;20020;-80
2023/07/25 09:27:16;;;;;;;5.75;1.35;;;24.60;99.90;;;;;;6184101;23;20020;-79
2023/07/25 09:29:47;;;;;;;5.00;1.30;;;24.40;99.90;;;;;;6212568;23;20020;-81
2023/07/25 09:32:24;;;;;;;4.50;1.55;;;24.10;99.90;;;;;;6161341;23;20070;-79
2023/07/25 09:35:01;;;;;;;6.03;1.20;;;24.00;99.90;;;;;;6137073;23;20111;-78
2023/07/25 09:37:29;;;;;;;7.13;2.10;;;23.90;99.90;;;;;;6209302;23;20104;-78
2023/07/25 09:39:56;;;;;;;7.50;2.05;;;23.80;99.90;;;;;;6209267;23;20023;-79
2023/07/25 09:42:24;;;;;;;5.28;1.88;;;23.70;99.90;;;;;;6181173;23;20071;-80
2023/07/25 09:44:53;;;;;;;5.43;1.33;;;23.70;99.90;;;;;;6210446;23;20468;-78
2023/07/25 09:47:24;;;;;;;3.95;1.50;;;23.60;99.90;;;;;;6210632;23;20023;-78
2023/07/25 09:49:53;;;;;;;5.55;1.85;;;23.80;99.90;;;;;;6214040;23;20025;-78
2023/07/25 09:52:22;;;;;;;7.18;1.83;;;24.00;99.90;;;;;;6188744;23;20757;-78
2023/07/25 09:54:50;;;;;;;8.15;2.08;;;23.90;99.90;;;;;;6210596;23;20672;-79
2023/07/25 09:57:18;;;;;;;6.70;2.20;;;23.90;99.90;;;;;;6215447;23;20016;-78
2023/07/25 09:59:48;;;;;;;7.45;2.88;;;23.80;99.90;;;;;;6188832;23;20023;-79
2023/07/25 10:02:16;;;;;;;5.10;1.80;;;23.70;99.90;;;;;;6159663;23;20020;-79
2023/07/25 10:04:43;;;;;;;7.97;2.53;;;23.70;99.90;;;;;;6189546;23;20611;-79
2023/07/25 10:07:12;;;;;;;4.90;2.00;;;23.80;99.90;;;;;;6215672;23;20029;-79
2023/07/25 10:09:40;;;;;;;9.27;2.03;;;23.90;99.90;;;;;;6189378;23;20021;-79
2023/07/25 10:12:08;;;;;;;7.63;1.98;;;23.80;99.90;;;;;;6187433;23;20398;-78
2023/07/25 10:14:38;;;;;;;8.07;2.75;;;23.70;99.90;;;;;;6215198;23;20336;-77
2023/07/25 10:17:08;;;;;;;6.32;2.60;;;23.80;99.90;;;;;;6189810;23;20017;-78
2023/07/25 10:19:53;;;;;;;7.50;2.30;;;24.00;99.90;;;;;;6187526;23;20024;-78
2023/07/25 10:22:37;;;;;;;4.38;2.30;;;24.10;99.90;;;;;;6189707;23;20024;-79
2023/07/25 10:25:09;;;;;;;4.18;2.15;;;24.10;99.90;;;;;;6188350;23;20024;-77
2023/07/25 10:27:37;;;;;;;3.88;1.92;;;23.90;99.90;;;;;;6163240;23;20030;-77
2023/07/25 10:30:24;;;;;;;5.30;2.58;;;23.70;99.90;;;;;;6184760;23;20441;-77
2023/07/25 10:32:56;;;;;;;6.95;2.47;;;23.80;99.90;;;;;;6184049;23;20017;-75
2023/07/25 10:35:43;;;;;;;7.32;2.92;;;23.50;99.90;;;;;;6213825;23;20024;-79
2023/07/25 10:38:13;;;;;;;7.85;3.05;;;23.70;99.90;;;;;;6187759;23;20330;-77
2023/07/25 10:40:54;;;;;;;5.32;2.97;;;23.50;99.90;;;;;;6188024;23;20016;-76
2023/07/25 10:43:22;;;;;;;7.18;3.17;;;23.30;99.90;;;;;;6162902;23;20456;-76
2023/07/25 10:45:51;;;;;;;7.30;3.30;;;23.50;99.90;;;;;;6183685;23;20063;-76
2023/07/25 10:48:34;;;;;;;5.20;2.72;;;23.50;99.90;;;;;;6184207;23;20095;-75
2023/07/25 10:51:06;;;;;;;5.82;2.80;;;23.50;99.90;;;;;;6184144;23;20467;-76
2023/07/25 10:53:34;;;;;;;6.13;2.95;;;23.50;99.90;;;;;;6186850;23;20033;-77
2023/07/25 10:56:05;;;;;;;6.18;2.85;;;23.40;99.90;;;;;;6213372;23;20091;-76
2023/07/25 10:58:38;;;;;;;5.03;2.65;;;23.20;99.90;;;;;;6163325;23;20048;-77
2023/07/25 11:01:06;;;;;;;6.68;2.85;;;23.40;99.90;;;;;;6213417;23;20021;-76
2023/07/25 11:03:36;;;;;;;5.57;2.83;;;23.30;99.90;;;;;;6187006;23;20075;-76
2023/07/25 11:06:08;;;;;;;5.03;2.65;;;23.20;99.90;;;;;;6213119;23;20024;-76
2023/07/25 11:08:40;;;;;;;5.68;2.70;;;23.30;99.90;;;;;;6186958;23;20024;-76
2023/07/25 11:11:09;;;;;;;6.10;2.35;;;23.20;99.90;;;;;;6183545;23;20401;-77
2023/07/25 11:13:39;;;;;;;5.05;2.50;;;23.20;99.90;;;;;;6161005;23;20020;-78
2023/07/25 11:16:08;;;;;;;4.70;2.72;;;23.10;99.90;;;;;;6161866;23;20090;-77
2023/07/25 11:18:47;;;;;;;5.47;2.55;;;23.20;99.90;;;;;;6186863;23;20099;-75
2023/07/25 11:21:15;;;;;;;7.50;3.03;;;23.20;99.90;;;;;;6186824;23;20020;-78
2023/07/25 11:23:42;;;;;;;5.50;2.50;;;23.10;99.90;;;;;;6213300;23;20093;-77
2023/07/25 11:26:10;;;;;;;4.00;2.10;;;23.30;99.90;;;;;;6157825;23;20075;-78
2023/07/25 11:28:38;;;;;;;6.10;2.60;;;23.40;99.90;;;;;;6188208;23;20467;-81
2023/07/25 11:31:05;;;;;;;8.43;2.90;;;23.50;99.90;;;;;;6184704;23;20501;-78
2023/07/25 11:33:42;;;;;;;5.75;2.65;;;23.50;99.90;;;;;;6185833;23;20017;-78
2023/07/25 11:36:10;;;;;;;5.53;2.85;;;23.60;99.90;;;;;;6163043;23;20052;-78
2023/07/25 11:38:37;;;;;;;6.00;2.53;;;23.70;99.90;;;;;;6162828;23;20437;-79
2023/07/25 11:41:05;;;;;;;7.93;3.00;;;23.80;99.90;;;;;;6158238;23;20122;-79
2023/07/25 11:43:32;;;;;;;9.38;2.92;;;23.80;99.90;;;;;;6163144;23;20052;-78
2023/07/25 11:45:59;;;;;;;5.90;2.83;;;23.90;99.90;;;;;;6162305;23;20025;-78
2023/07/25 11:48:28;;;;;;;4.93;2.85;;;23.70;99.90;;;;;;6187606;23;20663;-78
2023/07/25 11:50:56;;;;;;;5.82;2.65;;;23.60;99.90;;;;;;6188646;23;20028;-78
2023/07/25 11:53:27;;;;;;;7.35;2.88;;;23.70;99.90;;;;;;6188504;23;20636;-78
2023/07/25 11:55:55;;;;;;;5.40;2.70;;;23.90;99.90;;;;;;6162294;23;20025;-78
2023/07/25 11:58:23;;;;;;;5.80;2.88;;;24.00;99.90;;;;;;6214253;23;20013;-78
2023/07/25 12:00:54;;;;;;;5.78;2.25;;;23.90;99.90;;;;;;6163291;23;20024;-79
2023/07/25 12:03:24;;;;;;;5.05;2.35;;;24.10;99.90;;;;;;6163130;23;20029;-79
2023/07/25 12:05:55;;;;;;;5.28;2.42;;;24.20;99.90;;;;;;6187473;23;20652;-80
2023/07/25 12:08:32;;;;;;;4.47;2.15;;;24.10;99.90;;;;;;6163741;23;20028;-80
2023/07/25 12:11:10;;;;;;;4.45;2.22;;;24.20;99.90;;;;;;6187829;23;20032;-79
2023/07/25 12:13:54;;;;;;;8.30;3.42;;;24.20;99.90;;;;;;6162822;23;20020;-78
2023/07/25 12:16:33;;;;;;;5.68;2.65;;;24.20;99.90;;;;;;6187993;23;20075;-79
2023/07/25 12:19:03;;;;;;;5.13;2.70;;;24.10;99.90;;;;;;6188133;23;20028;-79
2023/07/25 12:21:32;;;;;;;5.32;2.63;;;24.10;99.90;;;;;;6163108;23;20094;-78
2023/07/25 12:24:02;;;;;;;6.82;2.95;;;23.90;99.90;;;;;;6187490;23;20368;-78
2023/07/25 12:26:41;;;;;;;7.05;2.53;;;23.90;99.90;;;;;;6187698;23;20103;-79
2023/07/25 12:29:25;;;;;;;6.70;2.70;;;23.90;99.90;;;;;;6187995;23;20425;-79
2023/07/25 12:31:54;;;;;;;5.63;2.58;;;23.90;99.90;;;;;;6162337;23;20051;-80
2023/07/25 12:34:21;;;;;;;5.95;3.13;;;23.80;99.90;;;;;;6187173;23;20027;-80
2023/07/25 12:36:49;;;;;;;7.07;3.00;;;23.70;99.90;;;;;;6160057;23;20364;-78
2023/07/25 12:39:17;;;;;;;6.75;3.33;;;23.70;99.90;;;;;;6212123;23;20036;-79
2023/07/25 12:41:45;;;;;;;6.28;2.55;;;23.80;99.90;;;;;;6162799;23;20636;-79
2023/07/25 12:44:12;;;;;;;8.60;3.20;;;23.80;99.90;;;;;;6187652;23;20017;-79
2023/07/25 12:46:39;;;;;;;6.68;3.10;;;23.80;99.90;;;;;;6186321;23;20083;-78
2023/07/25 12:49:07;;;;;;;5.55;2.80;;;23.80;99.90;;;;;;6186570;23;20021;-77
2023/07/25 12:51:34;;;;;;;7.18;3.10;;;23.80;99.90;;;;;;6185973;23;20031;-77